sensor_id;sensor_type;location;lat;lon;timestamp;temperature;humidity
16160;DHT22;8185;57.818;15.224;2022-11-20T00:00:19;-1.70;99.90
16160;DHT22;8185;57.818;15.224;2022-11-20T00:02:47;-1.70;99.90
16160;DHT22;8185;57.818;15.224;2022-11-20T00:05:14;-1.70;99.90
16160;DHT22;8185;57.818;15.224;2022-11-20T00:07:43;-1.70;99.90
16160;DHT22;8185;57.818;15.224;2022-11-20T00:10:10;-1.60;99.90
16160;DHT22;8185;57.818;15.224;2022-11-20T00:12:37;-1.60;99.90
16160;DHT22;8185;57.818;15.224;2022-11-20T00:15:05;-1.60;99.90
16160;DHT22;8185;57.818;15.224;2022-11-20T00:17:32;-1.50;99.90
16160;DHT22;8185;57.818;15.224;2022-11-20T00:20:00;-1.50;99.90
16160;DHT22;8185;57.818;15.224;2022-11-20T00:22:27;-1.40;99.90
16160;DHT22;8185;57.818;15.224;2022-11-20T00:24:56;-1.40;99.90
16160;DHT22;8185;57.818;15.224;2022-11-20T00:27:23;-1.40;99.90
16160;DHT22;8185;57.818;15.224;2022-11-20T00:29:50;-1.40;99.90
16160;DHT22;8185;57.818;15.224;2022-11-20T00:32:18;-1.40;99.90
16160;DHT22;8185;57.818;15.224;2022-11-20T00:34:45;-1.40;99.90
16160;DHT22;8185;57.818;15.224;2022-11-20T00:37:12;-1.40;99.90
16160;DHT22;8185;57.818;15.224;2022-11-20T00:39:40;-1.40;99.90
16160;DHT22;8185;57.818;15.224;2022-11-20T00:42:08;-1.40;99.90
16160;DHT22;8185;57.818;15.224;2022-11-20T00:44:36;-1.30;99.90
16160;DHT22;8185;57.818;15.224;2022-11-20T00:47:03;-1.40;99.90
16160;DHT22;8185;57.818;15.224;2022-11-20T00:49:30;-1.30;99.90
16160;DHT22;8185;57.818;15.224;2022-11-20T00:51:57;-1.40;99.90
16160;DHT22;8185;57.818;15.224;2022-11-20T00:54:25;-1.30;99.90
16160;DHT22;8185;57.818;15.224;2022-11-20T00:56:53;-1.30;99.90
16160;DHT22;8185;57.818;15.224;2022-11-20T00:59:22;-1.30;99.90
16160;DHT22;8185;57.818;15.224;2022-11-20T01:01:49;-1.30;99.90
16160;DHT22;8185;57.818;15.224;2022-11-20T01:04:16;-1.30;99.90
16160;DHT22;8185;57.818;15.224;2022-11-20T01:06:43;-1.40;99.90
16160;DHT22;8185;57.818;15.224;2022-11-20T01:09:12;-1.30;99.90
16160;DHT22;8185;57.818;15.224;2022-11-20T01:11:43;-1.30;99.90
16160;DHT22;8185;57.818;15.224;2022-11-20T01:14:12;-1.30;99.90
16160;DHT22;8185;57.818;15.224;2022-11-20T01:16:42;-1.30;99.90
16160;DHT22;8185;57.818;15.224;2022-11-20T01:19:12;-1.30;99.90
16160;DHT22;8185;57.818;15.224;2022-11-20T01:21:41;-1.30;99.90
16160;DHT22;8185;57.818;15.224;2022-11-20T01:24:12;-1.30;99.90
16160;DHT22;8185;57.818;15.224;2022-11-20T01:26:40;-1.30;99.90
16160;DHT22;8185;57.818;15.224;2022-11-20T01:31:40;-1.30;99.90
16160;DHT22;8185;57.818;15.224;2022-11-20T01:34:11;-1.30;99.90
16160;DHT22;8185;57.818;15.224;2022-11-20T01:36:39;-1.30;99.90
16160;DHT22;8185;57.818;15.224;2022-11-20T01:39:10;-1.30;99.90
16160;DHT22;8185;57.818;15.224;2022-11-20T01:41:38;-1.30;99.90
16160;DHT22;8185;57.818;15.224;2022-11-20T01:44:45;-1.30;99.90
16160;DHT22;8185;57.818;15.224;2022-11-20T01:47:19;-1.30;99.90
16160;DHT22;8185;57.818;15.224;2022-11-20T01:49:50;-1.20;99.90
16160;DHT22;8185;57.818;15.224;2022-11-20T01:52:21;-1.20;99.90
16160;DHT22;8185;57.818;15.224;2022-11-20T01:54:52;-1.30;99.90
16160;DHT22;8185;57.818;15.224;2022-11-20T01:57:20;-1.30;99.90
16160;DHT22;8185;57.818;15.224;2022-11-20T01:59:53;-1.30;99.90
16160;DHT22;8185;57.818;15.224;2022-11-20T02:02:23;-1.30;99.90
16160;DHT22;8185;57.818;15.224;2022-11-20T02:04:51;-1.30;99.90
16160;DHT22;8185;57.818;15.224;2022-11-20T02:07:21;-1.30;99.90
16160;DHT22;8185;57.818;15.224;2022-11-20T02:09:50;-1.30;99.90
16160;DHT22;8185;57.818;15.224;2022-11-20T02:12:18;-1.30;99.90
16160;DHT22;8185;57.818;15.224;2022-11-20T02:14:59;-1.30;99.90
16160;DHT22;8185;57.818;15.224;2022-11-20T02:17:28;-1.30;99.90
16160;DHT22;8185;57.818;15.224;2022-11-20T02:19:55;-1.30;99.90
16160;DHT22;8185;57.818;15.224;2022-11-20T02:22:28;-1.30;99.90
16160;DHT22;8185;57.818;15.224;2022-11-20T02:25:00;-1.30;99.90
16160;DHT22;8185;57.818;15.224;2022-11-20T02:27:29;-1.30;99.90
16160;DHT22;8185;57.818;15.224;2022-11-20T02:29:59;-1.30;99.90
16160;DHT22;8185;57.818;15.224;2022-11-20T02:32:29;-1.40;99.90
16160;DHT22;8185;57.818;15.224;2022-11-20T02:34:57;-1.40;99.90
16160;DHT22;8185;57.818;15.224;2022-11-20T02:37:30;-1.40;99.90
16160;DHT22;8185;57.818;15.224;2022-11-20T02:40:01;-1.40;99.90
16160;DHT22;8185;57.818;15.224;2022-11-20T02:42:28;-1.40;99.90
16160;DHT22;8185;57.818;15.224;2022-11-20T02:44:55;-1.40;99.90
16160;DHT22;8185;57.818;15.224;2022-11-20T02:47:22;-1.40;99.90
16160;DHT22;8185;57.818;15.224;2022-11-20T02:49:49;-1.40;99.90
16160;DHT22;8185;57.818;15.224;2022-11-20T02:52:17;-1.40;99.90
16160;DHT22;8185;57.818;15.224;2022-11-20T02:54:44;-1.40;99.90
16160;DHT22;8185;57.818;15.224;2022-11-20T02:57:12;-1.40;99.90
16160;DHT22;8185;57.818;15.224;2022-11-20T02:59:40;-1.40;99.90
16160;DHT22;8185;57.818;15.224;2022-11-20T03:02:07;-1.40;99.90
16160;DHT22;8185;57.818;15.224;2022-11-20T03:04:34;-1.40;99.90
16160;DHT22;8185;57.818;15.224;2022-11-20T03:07:02;-1.40;99.90
16160;DHT22;8185;57.818;15.224;2022-11-20T03:09:29;-1.40;99.90
16160;DHT22;8185;57.818;15.224;2022-11-20T03:11:56;-1.40;99.90
16160;DHT22;8185;57.818;15.224;2022-11-20T03:14:25;-1.30;99.90
16160;DHT22;8185;57.818;15.224;2022-11-20T03:16:52;-1.40;99.90
16160;DHT22;8185;57.818;15.224;2022-11-20T03:19:20;-1.40;99.90
16160;DHT22;8185;57.818;15.224;2022-11-20T03:21:47;-1.40;99.90
16160;DHT22;8185;57.818;15.224;2022-11-20T03:24:14;-1.40;99.90
16160;DHT22;8185;57.818;15.224;2022-11-20T03:26:42;-1.40;99.90
16160;DHT22;8185;57.818;15.224;2022-11-20T03:29:09;-1.40;99.90
16160;DHT22;8185;57.818;15.224;2022-11-20T03:31:39;-1.40;99.90
16160;DHT22;8185;57.818;15.224;2022-11-20T03:34:08;-1.40;99.90
16160;DHT22;8185;57.818;15.224;2022-11-20T03:36:36;-1.40;99.90
16160;DHT22;8185;57.818;15.224;2022-11-20T03:39:04;-1.40;99.90
16160;DHT22;8185;57.818;15.224;2022-11-20T03:41:36;-1.40;99.90
16160;DHT22;8185;57.818;15.224;2022-11-20T03:44:05;-1.40;99.90
16160;DHT22;8185;57.818;15.224;2022-11-20T03:46:33;-1.40;99.90
16160;DHT22;8185;57.818;15.224;2022-11-20T03:49:02;-1.40;99.90
16160;DHT22;8185;57.818;15.224;2022-11-20T03:51:30;-1.40;99.90
16160;DHT22;8185;57.818;15.224;2022-11-20T03:53:59;-1.40;99.90
16160;DHT22;8185;57.818;15.224;2022-11-20T03:56:29;-1.40;99.90
16160;DHT22;8185;57.818;15.224;2022-11-20T03:58:57;-1.40;99.90
16160;DHT22;8185;57.818;15.224;2022-11-20T04:01:27;-1.40;99.90
16160;DHT22;8185;57.818;15.224;2022-11-20T04:03:55;-1.40;99.90
16160;DHT22;8185;57.818;15.224;2022-11-20T04:06:26;-1.40;99.90
16160;DHT22;8185;57.818;15.224;2022-11-20T04:08:54;-1.40;99.90
16160;DHT22;8185;57.818;15.224;2022-11-20T04:11:23;-1.40;99.90
16160;DHT22;8185;57.818;15.224;2022-11-20T04:13:52;-1.30;99.90
16160;DHT22;8185;57.818;15.224;2022-11-20T04:16:21;-1.30;99.90
16160;DHT22;8185;57.818;15.224;2022-11-20T04:18:52;-1.30;99.90
16160;DHT22;8185;57.818;15.224;2022-11-20T04:21:20;-1.30;99.90
16160;DHT22;8185;57.818;15.224;2022-11-20T04:23:49;-1.30;99.90
16160;DHT22;8185;57.818;15.224;2022-11-20T04:26:16;-1.30;99.90
16160;DHT22;8185;57.818;15.224;2022-11-20T04:28:44;-1.30;99.90
16160;DHT22;8185;57.818;15.224;2022-11-20T04:31:13;-1.30;99.90
16160;DHT22;8185;57.818;15.224;2022-11-20T04:33:40;-1.30;99.90
16160;DHT22;8185;57.818;15.224;2022-11-20T04:36:11;-1.30;99.90
16160;DHT22;8185;57.818;15.224;2022-11-20T04:38:39;-1.30;99.90
16160;DHT22;8185;57.818;15.224;2022-11-20T04:41:11;-1.30;99.90
16160;DHT22;8185;57.818;15.224;2022-11-20T04:43:40;-1.30;99.90
16160;DHT22;8185;57.818;15.224;2022-11-20T04:46:08;-1.30;99.90
16160;DHT22;8185;57.818;15.224;2022-11-20T04:48:35;-1.30;99.90
16160;DHT22;8185;57.818;15.224;2022-11-20T04:51:03;-1.30;99.90
16160;DHT22;8185;57.818;15.224;2022-11-20T04:53:31;-1.30;99.90
16160;DHT22;8185;57.818;15.224;2022-11-20T04:56:00;-1.30;99.90
16160;DHT22;8185;57.818;15.224;2022-11-20T04:58:29;-1.30;99.90
16160;DHT22;8185;57.818;15.224;2022-11-20T05:01:01;-1.30;99.90
16160;DHT22;8185;57.818;15.224;2022-11-20T05:03:30;-1.30;99.90
16160;DHT22;8185;57.818;15.224;2022-11-20T05:05:59;-1.30;99.90
16160;DHT22;8185;57.818;15.224;2022-11-20T05:08:27;-1.30;99.90
16160;DHT22;8185;57.818;15.224;2022-11-20T05:10:59;-1.30;99.90
16160;DHT22;8185;57.818;15.224;2022-11-20T05:13:28;-1.30;99.90
16160;DHT22;8185;57.818;15.224;2022-11-20T05:15:55;-1.40;99.90
16160;DHT22;8185;57.818;15.224;2022-11-20T05:18:27;-1.40;99.90
16160;DHT22;8185;57.818;15.224;2022-11-20T05:20:55;-1.40;99.90
16160;DHT22;8185;57.818;15.224;2022-11-20T05:23:23;-1.30;99.90
16160;DHT22;8185;57.818;15.224;2022-11-20T05:25:52;-1.30;99.90
16160;DHT22;8185;57.818;15.224;2022-11-20T05:28:20;-1.40;99.90
16160;DHT22;8185;57.818;15.224;2022-11-20T05:30:49;-1.30;99.90
16160;DHT22;8185;57.818;15.224;2022-11-20T05:33:16;-1.30;99.90
16160;DHT22;8185;57.818;15.224;2022-11-20T05:35:44;-1.30;99.90
16160;DHT22;8185;57.818;15.224;2022-11-20T05:38:11;-1.30;99.90
16160;DHT22;8185;57.818;15.224;2022-11-20T05:40:38;-1.30;99.90
16160;DHT22;8185;57.818;15.224;2022-11-20T05:43:06;-1.30;99.90
16160;DHT22;8185;57.818;15.224;2022-11-20T05:45:33;-1.20;99.90
16160;DHT22;8185;57.818;15.224;2022-11-20T05:48:02;-1.20;99.90
16160;DHT22;8185;57.818;15.224;2022-11-20T05:50:30;-1.20;99.90
16160;DHT22;8185;57.818;15.224;2022-11-20T05:52:58;-1.20;99.90
16160;DHT22;8185;57.818;15.224;2022-11-20T05:55:25;-1.20;99.90
16160;DHT22;8185;57.818;15.224;2022-11-20T05:57:53;-1.20;99.90
16160;DHT22;8185;57.818;15.224;2022-11-20T06:00:20;-1.20;99.90
16160;DHT22;8185;57.818;15.224;2022-11-20T06:02:48;-1.20;99.90
16160;DHT22;8185;57.818;15.224;2022-11-20T06:05:16;-1.10;99.90
16160;DHT22;8185;57.818;15.224;2022-11-20T06:07:43;-1.10;99.90
16160;DHT22;8185;57.818;15.224;2022-11-20T06:10:11;-1.10;99.90
16160;DHT22;8185;57.818;15.224;2022-11-20T06:12:39;-1.20;99.90
16160;DHT22;8185;57.818;15.224;2022-11-20T06:15:07;-1.10;99.90
16160;DHT22;8185;57.818;15.224;2022-11-20T06:17:34;-1.10;99.90
16160;DHT22;8185;57.818;15.224;2022-11-20T06:20:01;-1.10;99.90
16160;DHT22;8185;57.818;15.224;2022-11-20T06:22:30;-1.10;99.90
16160;DHT22;8185;57.818;15.224;2022-11-20T06:24:58;-1.10;99.90
16160;DHT22;8185;57.818;15.224;2022-11-20T06:27:27;-1.10;99.90
16160;DHT22;8185;57.818;15.224;2022-11-20T06:29:54;-1.20;99.90
16160;DHT22;8185;57.818;15.224;2022-11-20T06:32:21;-1.20;99.90
16160;DHT22;8185;57.818;15.224;2022-11-20T06:34:48;-1.10;99.90
16160;DHT22;8185;57.818;15.224;2022-11-20T06:37:16;-1.10;99.90
16160;DHT22;8185;57.818;15.224;2022-11-20T06:39:44;-1.10;99.90
16160;DHT22;8185;57.818;15.224;2022-11-20T06:42:12;-1.10;99.90
16160;DHT22;8185;57.818;15.224;2022-11-20T06:44:39;-1.10;99.90
16160;DHT22;8185;57.818;15.224;2022-11-20T06:47:06;-1.00;99.90
16160;DHT22;8185;57.818;15.224;2022-11-20T06:49:33;-1.00;99.90
16160;DHT22;8185;57.818;15.224;2022-11-20T06:52:03;-1.00;99.90
16160;DHT22;8185;57.818;15.224;2022-11-20T06:54:30;-1.00;99.90
16160;DHT22;8185;57.818;15.224;2022-11-20T06:56:59;-0.90;99.90
16160;DHT22;8185;57.818;15.224;2022-11-20T06:59:26;-0.90;99.90
16160;DHT22;8185;57.818;15.224;2022-11-20T07:01:53;-0.90;99.90
16160;DHT22;8185;57.818;15.224;2022-11-20T07:04:20;-0.90;99.90
16160;DHT22;8185;57.818;15.224;2022-11-20T07:06:48;-0.90;99.90
16160;DHT22;8185;57.818;15.224;2022-11-20T07:09:15;-0.80;99.90
16160;DHT22;8185;57.818;15.224;2022-11-20T07:11:43;-0.80;99.90
16160;DHT22;8185;57.818;15.224;2022-11-20T07:14:11;-0.80;99.90
16160;DHT22;8185;57.818;15.224;2022-11-20T07:16:39;-0.70;99.90
16160;DHT22;8185;57.818;15.224;2022-11-20T07:19:06;-0.70;99.90
16160;DHT22;8185;57.818;15.224;2022-11-20T07:21:34;-0.60;99.90
16160;DHT22;8185;57.818;15.224;2022-11-20T07:24:01;-0.60;99.90
16160;DHT22;8185;57.818;15.224;2022-11-20T07:26:28;-0.50;99.90
16160;DHT22;8185;57.818;15.224;2022-11-20T07:28:55;-0.40;99.90
16160;DHT22;8185;57.818;15.224;2022-11-20T07:31:24;-0.50;99.90
16160;DHT22;8185;57.818;15.224;2022-11-20T07:33:51;-0.40;99.90
16160;DHT22;8185;57.818;15.224;2022-11-20T07:36:19;-0.40;99.90
16160;DHT22;8185;57.818;15.224;2022-11-20T07:38:46;-0.40;99.90
16160;DHT22;8185;57.818;15.224;2022-11-20T07:41:13;-0.30;99.90
16160;DHT22;8185;57.818;15.224;2022-11-20T07:43:41;-0.30;99.90
16160;DHT22;8185;57.818;15.224;2022-11-20T07:46:09;-0.30;99.90
16160;DHT22;8185;57.818;15.224;2022-11-20T07:48:37;-0.30;99.90
16160;DHT22;8185;57.818;15.224;2022-11-20T07:51:05;-0.30;99.90
16160;DHT22;8185;57.818;15.224;2022-11-20T07:53:32;-0.30;99.90
16160;DHT22;8185;57.818;15.224;2022-11-20T07:56:00;-0.30;99.90
16160;DHT22;8185;57.818;15.224;2022-11-20T07:58:29;-0.30;99.90
16160;DHT22;8185;57.818;15.224;2022-11-20T08:01:01;-0.30;99.90
16160;DHT22;8185;57.818;15.224;2022-11-20T08:03:29;-0.20;99.90
16160;DHT22;8185;57.818;15.224;2022-11-20T08:06:00;-0.20;99.90
16160;DHT22;8185;57.818;15.224;2022-11-20T08:08:28;-0.20;99.90
16160;DHT22;8185;57.818;15.224;2022-11-20T08:10:56;-0.20;99.90
16160;DHT22;8185;57.818;15.224;2022-11-20T08:13:44;-0.20;99.90
16160;DHT22;8185;57.818;15.224;2022-11-20T08:16:28;-0.20;99.90
16160;DHT22;8185;57.818;15.224;2022-11-20T08:18:55;-0.20;99.90
16160;DHT22;8185;57.818;15.224;2022-11-20T08:21:24;-0.20;99.90
16160;DHT22;8185;57.818;15.224;2022-11-20T08:23:51;-0.20;99.90
16160;DHT22;8185;57.818;15.224;2022-11-20T08:26:20;-0.20;99.90
16160;DHT22;8185;57.818;15.224;2022-11-20T08:28:48;-0.20;99.90
16160;DHT22;8185;57.818;15.224;2022-11-20T08:31:15;-0.20;99.90
16160;DHT22;8185;57.818;15.224;2022-11-20T08:33:42;-0.10;99.90
16160;DHT22;8185;57.818;15.224;2022-11-20T08:36:10;-0.20;99.90
16160;DHT22;8185;57.818;15.224;2022-11-20T08:38:38;-0.10;99.90
16160;DHT22;8185;57.818;15.224;2022-11-20T08:41:06;-0.10;99.90
16160;DHT22;8185;57.818;15.224;2022-11-20T08:43:53;-0.10;99.90
16160;DHT22;8185;57.818;15.224;2022-11-20T08:46:21;0.00;99.90
16160;DHT22;8185;57.818;15.224;2022-11-20T08:48:48;0.00;99.90
16160;DHT22;8185;57.818;15.224;2022-11-20T08:51:16;0.00;99.90
16160;DHT22;8185;57.818;15.224;2022-11-20T08:53:45;0.00;99.90
16160;DHT22;8185;57.818;15.224;2022-11-20T08:56:14;0.00;99.90
16160;DHT22;8185;57.818;15.224;2022-11-20T08:58:42;-0.10;99.90
16160;DHT22;8185;57.818;15.224;2022-11-20T09:01:09;-0.10;99.90
16160;DHT22;8185;57.818;15.224;2022-11-20T09:03:36;0.00;99.90
16160;DHT22;8185;57.818;15.224;2022-11-20T09:06:05;-0.10;99.90
16160;DHT22;8185;57.818;15.224;2022-11-20T09:08:33;-0.10;99.90
16160;DHT22;8185;57.818;15.224;2022-11-20T09:11:03;-0.20;99.90
16160;DHT22;8185;57.818;15.224;2022-11-20T09:13:32;-0.20;99.90
16160;DHT22;8185;57.818;15.224;2022-11-20T09:16:01;-0.20;99.90
16160;DHT22;8185;57.818;15.224;2022-11-20T09:18:29;-0.20;99.90
16160;DHT22;8185;57.818;15.224;2022-11-20T09:20:59;-0.20;99.90
16160;DHT22;8185;57.818;15.224;2022-11-20T09:23:26;-0.20;99.90
16160;DHT22;8185;57.818;15.224;2022-11-20T09:25:54;-0.20;99.90
16160;DHT22;8185;57.818;15.224;2022-11-20T09:28:26;-0.10;99.90
16160;DHT22;8185;57.818;15.224;2022-11-20T09:30:54;0.00;99.90
16160;DHT22;8185;57.818;15.224;2022-11-20T09:33:21;0.00;99.90
16160;DHT22;8185;57.818;15.224;2022-11-20T09:35:48;0.00;99.90
16160;DHT22;8185;57.818;15.224;2022-11-20T09:38:16;0.10;99.90
16160;DHT22;8185;57.818;15.224;2022-11-20T09:40:46;0.10;99.90
16160;DHT22;8185;57.818;15.224;2022-11-20T09:43:19;0.10;99.90
16160;DHT22;8185;57.818;15.224;2022-11-20T09:46:02;0.20;99.90
16160;DHT22;8185;57.818;15.224;2022-11-20T09:48:44;0.20;99.90
16160;DHT22;8185;57.818;15.224;2022-11-20T09:51:24;0.30;99.90
16160;DHT22;8185;57.818;15.224;2022-11-20T09:54:01;0.20;99.90
16160;DHT22;8185;57.818;15.224;2022-11-20T09:56:30;0.10;99.90
16160;DHT22;8185;57.818;15.224;2022-11-20T09:59:02;0.20;99.90
16160;DHT22;8185;57.818;15.224;2022-11-20T10:01:35;0.20;99.90
16160;DHT22;8185;57.818;15.224;2022-11-20T10:04:06;0.20;99.90
16160;DHT22;8185;57.818;15.224;2022-11-20T10:06:41;0.30;99.90
16160;DHT22;8185;57.818;15.224;2022-11-20T10:09:20;0.20;99.90
16160;DHT22;8185;57.818;15.224;2022-11-20T10:11:56;0.20;99.90
16160;DHT22;8185;57.818;15.224;2022-11-20T10:14:34;0.20;99.90
16160;DHT22;8185;57.818;15.224;2022-11-20T10:17:14;0.30;99.90
16160;DHT22;8185;57.818;15.224;2022-11-20T10:20:01;0.30;99.90
16160;DHT22;8185;57.818;15.224;2022-11-20T10:22:44;0.30;99.90
16160;DHT22;8185;57.818;15.224;2022-11-20T10:25:16;0.30;99.90
16160;DHT22;8185;57.818;15.224;2022-11-20T10:30:42;0.30;99.90
16160;DHT22;8185;57.818;15.224;2022-11-20T10:33:15;0.20;99.90
16160;DHT22;8185;57.818;15.224;2022-11-20T10:35:45;0.10;99.90
16160;DHT22;8185;57.818;15.224;2022-11-20T10:38:20;0.20;99.90
16160;DHT22;8185;57.818;15.224;2022-11-20T10:40:51;0.20;99.90
16160;DHT22;8185;57.818;15.224;2022-11-20T10:43:40;0.20;99.90
16160;DHT22;8185;57.818;15.224;2022-11-20T10:46:12;0.30;99.90
16160;DHT22;8185;57.818;15.224;2022-11-20T10:48:43;0.20;99.90
16160;DHT22;8185;57.818;15.224;2022-11-20T10:51:18;0.10;99.90
16160;DHT22;8185;57.818;15.224;2022-11-20T10:53:56;0.10;99.90
16160;DHT22;8185;57.818;15.224;2022-11-20T10:56:31;0.10;99.90
16160;DHT22;8185;57.818;15.224;2022-11-20T10:59:11;0.10;99.90
16160;DHT22;8185;57.818;15.224;2022-11-20T11:01:43;0.10;99.90
16160;DHT22;8185;57.818;15.224;2022-11-20T11:04:30;0.10;99.90
16160;DHT22;8185;57.818;15.224;2022-11-20T11:07:07;0.00;99.90
16160;DHT22;8185;57.818;15.224;2022-11-20T11:09:38;0.00;99.90
16160;DHT22;8185;57.818;15.224;2022-11-20T11:12:07;0.10;99.90
16160;DHT22;8185;57.818;15.224;2022-11-20T11:14:47;0.10;99.90
16160;DHT22;8185;57.818;15.224;2022-11-20T11:17:23;0.00;99.90
16160;DHT22;8185;57.818;15.224;2022-11-20T11:20:06;0.00;99.90
16160;DHT22;8185;57.818;15.224;2022-11-20T11:22:42;0.00;99.90
16160;DHT22;8185;57.818;15.224;2022-11-20T11:25:24;0.10;99.90
16160;DHT22;8185;57.818;15.224;2022-11-20T11:27:53;0.10;99.90
16160;DHT22;8185;57.818;15.224;2022-11-20T11:30:23;0.10;99.90
16160;DHT22;8185;57.818;15.224;2022-11-20T11:32:51;0.10;99.90
16160;DHT22;8185;57.818;15.224;2022-11-20T11:35:30;0.20;99.90
16160;DHT22;8185;57.818;15.224;2022-11-20T11:38:04;0.30;99.90
16160;DHT22;8185;57.818;15.224;2022-11-20T11:40:34;0.30;99.90
16160;DHT22;8185;57.818;15.224;2022-11-20T11:43:04;0.30;99.90
16160;DHT22;8185;57.818;15.224;2022-11-20T11:45:54;0.30;99.90
16160;DHT22;8185;57.818;15.224;2022-11-20T11:48:21;0.40;99.90
16160;DHT22;8185;57.818;15.224;2022-11-20T11:50:50;0.40;99.90
16160;DHT22;8185;57.818;15.224;2022-11-20T11:53:19;0.40;99.90
16160;DHT22;8185;57.818;15.224;2022-11-20T11:55:53;0.40;99.90
16160;DHT22;8185;57.818;15.224;2022-11-20T11:58:34;0.40;99.90
16160;DHT22;8185;57.818;15.224;2022-11-20T12:01:04;0.10;99.90
16160;DHT22;8185;57.818;15.224;2022-11-20T12:03:36;0.20;99.90
16160;DHT22;8185;57.818;15.224;2022-11-20T12:06:10;0.40;99.90
16160;DHT22;8185;57.818;15.224;2022-11-20T12:08:44;0.50;99.90
16160;DHT22;8185;57.818;15.224;2022-11-20T12:11:17;0.50;99.90
16160;DHT22;8185;57.818;15.224;2022-11-20T12:13:52;0.50;99.90
16160;DHT22;8185;57.818;15.224;2022-11-20T12:16:21;0.50;99.90
16160;DHT22;8185;57.818;15.224;2022-11-20T12:18:49;0.60;99.90
16160;DHT22;8185;57.818;15.224;2022-11-20T12:21:29;0.50;99.90
16160;DHT22;8185;57.818;15.224;2022-11-20T12:24:12;0.40;99.90
16160;DHT22;8185;57.818;15.224;2022-11-20T12:26:55;0.60;99.90
16160;DHT22;8185;57.818;15.224;2022-11-20T12:29:36;0.50;99.90
16160;DHT22;8185;57.818;15.224;2022-11-20T12:35:10;0.50;99.90
16160;DHT22;8185;57.818;15.224;2022-11-20T12:37:51;0.50;99.90
16160;DHT22;8185;57.818;15.224;2022-11-20T12:40:28;0.50;99.90
16160;DHT22;8185;57.818;15.224;2022-11-20T12:43:06;0.40;99.90
16160;DHT22;8185;57.818;15.224;2022-11-20T12:46:10;0.40;99.90
16160;DHT22;8185;57.818;15.224;2022-11-20T12:48:52;0.40;99.90
16160;DHT22;8185;57.818;15.224;2022-11-20T12:51:44;0.50;99.90
16160;DHT22;8185;57.818;15.224;2022-11-20T12:54:34;0.40;99.90
16160;DHT22;8185;57.818;15.224;2022-11-20T12:57:09;0.40;99.90
16160;DHT22;8185;57.818;15.224;2022-11-20T13:00:07;0.30;99.90
16160;DHT22;8185;57.818;15.224;2022-11-20T13:02:46;0.40;99.90
16160;DHT22;8185;57.818;15.224;2022-11-20T13:05:21;0.30;99.90
16160;DHT22;8185;57.818;15.224;2022-11-20T13:07:53;0.20;99.90
16160;DHT22;8185;57.818;15.224;2022-11-20T13:10:28;0.20;99.90
16160;DHT22;8185;57.818;15.224;2022-11-20T13:13:03;0.20;99.90
16160;DHT22;8185;57.818;15.224;2022-11-20T13:15:40;0.20;99.90
16160;DHT22;8185;57.818;15.224;2022-11-20T13:18:12;0.20;99.90
16160;DHT22;8185;57.818;15.224;2022-11-20T13:20:42;0.20;99.90
16160;DHT22;8185;57.818;15.224;2022-11-20T13:23:10;0.20;99.90
16160;DHT22;8185;57.818;15.224;2022-11-20T13:25:40;0.10;99.90
16160;DHT22;8185;57.818;15.224;2022-11-20T13:28:28;0.10;99.90
16160;DHT22;8185;57.818;15.224;2022-11-20T13:30:57;0.20;99.90
16160;DHT22;8185;57.818;15.224;2022-11-20T13:33:28;0.10;99.90
16160;DHT22;8185;57.818;15.224;2022-11-20T13:35:58;0.10;99.90
16160;DHT22;8185;57.818;15.224;2022-11-20T13:38:26;0.10;99.90
16160;DHT22;8185;57.818;15.224;2022-11-20T13:40:56;0.10;99.90
16160;DHT22;8185;57.818;15.224;2022-11-20T13:43:33;0.10;99.90
16160;DHT22;8185;57.818;15.224;2022-11-20T13:46:02;0.00;99.90
16160;DHT22;8185;57.818;15.224;2022-11-20T13:48:33;0.00;99.90
16160;DHT22;8185;57.818;15.224;2022-11-20T13:51:15;-0.10;99.90
16160;DHT22;8185;57.818;15.224;2022-11-20T13:54:17;-0.10;99.90
16160;DHT22;8185;57.818;15.224;2022-11-20T13:56:59;-0.10;99.90
16160;DHT22;8185;57.818;15.224;2022-11-20T13:59:40;-0.10;99.90
16160;DHT22;8185;57.818;15.224;2022-11-20T14:02:14;-0.10;99.90
16160;DHT22;8185;57.818;15.224;2022-11-20T14:04:45;-0.20;99.90
16160;DHT22;8185;57.818;15.224;2022-11-20T14:07:15;-0.20;99.90
16160;DHT22;8185;57.818;15.224;2022-11-20T14:09:50;-0.20;99.90
16160;DHT22;8185;57.818;15.224;2022-11-20T14:12:22;-0.20;99.90
16160;DHT22;8185;57.818;15.224;2022-11-20T14:14:51;-0.30;99.90
16160;DHT22;8185;57.818;15.224;2022-11-20T14:17:28;-0.30;99.90
16160;DHT22;8185;57.818;15.224;2022-11-20T14:19:59;-0.30;99.90
16160;DHT22;8185;57.818;15.224;2022-11-20T14:22:28;-0.30;99.90
16160;DHT22;8185;57.818;15.224;2022-11-20T14:25:06;-0.30;99.90
16160;DHT22;8185;57.818;15.224;2022-11-20T14:27:37;-0.30;99.90
16160;DHT22;8185;57.818;15.224;2022-11-20T14:30:06;-0.30;99.90
16160;DHT22;8185;57.818;15.224;2022-11-20T14:32:35;-0.40;99.90
16160;DHT22;8185;57.818;15.224;2022-11-20T14:35:07;-0.40;99.90
16160;DHT22;8185;57.818;15.224;2022-11-20T14:37:37;-0.40;99.90
16160;DHT22;8185;57.818;15.224;2022-11-20T14:40:23;-0.40;99.90
16160;DHT22;8185;57.818;15.224;2022-11-20T14:42:52;-0.40;99.90
16160;DHT22;8185;57.818;15.224;2022-11-20T14:45:20;-0.40;99.90
16160;DHT22;8185;57.818;15.224;2022-11-20T14:47:49;-0.40;99.90
16160;DHT22;8185;57.818;15.224;2022-11-20T14:50:20;-0.50;99.90
16160;DHT22;8185;57.818;15.224;2022-11-20T14:52:53;-0.50;99.90
16160;DHT22;8185;57.818;15.224;2022-11-20T14:55:27;-0.50;99.90
16160;DHT22;8185;57.818;15.224;2022-11-20T14:57:57;-0.50;99.90
16160;DHT22;8185;57.818;15.224;2022-11-20T15:00:25;-0.50;99.90
16160;DHT22;8185;57.818;15.224;2022-11-20T15:02:53;-0.50;99.90
16160;DHT22;8185;57.818;15.224;2022-11-20T15:05:22;-0.50;99.90
16160;DHT22;8185;57.818;15.224;2022-11-20T15:07:52;-0.50;99.90
16160;DHT22;8185;57.818;15.224;2022-11-20T15:10:21;-0.60;99.90
16160;DHT22;8185;57.818;15.224;2022-11-20T15:12:51;-0.50;99.90
16160;DHT22;8185;57.818;15.224;2022-11-20T15:15:22;-0.50;99.90
16160;DHT22;8185;57.818;15.224;2022-11-20T15:17:51;-0.50;99.90
16160;DHT22;8185;57.818;15.224;2022-11-20T15:20:28;-0.50;99.90
16160;DHT22;8185;57.818;15.224;2022-11-20T15:22:57;-0.60;99.90
16160;DHT22;8185;57.818;15.224;2022-11-20T15:25:24;-0.50;99.90
16160;DHT22;8185;57.818;15.224;2022-11-20T15:27:54;-0.60;99.90
16160;DHT22;8185;57.818;15.224;2022-11-20T15:30:23;-0.60;99.90
16160;DHT22;8185;57.818;15.224;2022-11-20T15:32:51;-0.60;99.90
16160;DHT22;8185;57.818;15.224;2022-11-20T15:35:19;-0.60;99.90
16160;DHT22;8185;57.818;15.224;2022-11-20T15:37:46;-0.60;99.90
16160;DHT22;8185;57.818;15.224;2022-11-20T15:40:13;-0.60;99.90
16160;DHT22;8185;57.818;15.224;2022-11-20T15:42:41;-0.50;99.90
16160;DHT22;8185;57.818;15.224;2022-11-20T15:45:31;-0.50;99.90
16160;DHT22;8185;57.818;15.224;2022-11-20T15:48:01;-0.50;99.90
16160;DHT22;8185;57.818;15.224;2022-11-20T15:50:36;-0.50;99.90
16160;DHT22;8185;57.818;15.224;2022-11-20T15:53:03;-0.50;99.90
16160;DHT22;8185;57.818;15.224;2022-11-20T15:55:31;-0.50;99.90
16160;DHT22;8185;57.818;15.224;2022-11-20T15:57:59;-0.50;99.90
16160;DHT22;8185;57.818;15.224;2022-11-20T16:00:26;-0.50;99.90
16160;DHT22;8185;57.818;15.224;2022-11-20T16:02:55;-0.50;99.90
16160;DHT22;8185;57.818;15.224;2022-11-20T16:05:22;-0.50;99.90